sensor_id;sensor_type;location;lat;lon;timestamp;P1;P2;P0
21358;PMS7003;13506;50.852;20.632;2022-11-09T00:00:06;40.40;33.20;19.60
21358;PMS7003;13506;50.852;20.632;2022-11-09T00:02:55;35.20;27.40;17.00
21358;PMS7003;13506;50.852;20.632;2022-11-09T00:05:23;38.00;31.80;20.00
21358;PMS7003;13506;50.852;20.632;2022-11-09T00:07:50;34.20;30.00;17.80
21358;PMS7003;13506;50.852;20.632;2022-11-09T00:10:18;35.60;31.40;18.60
21358;PMS7003;13506;50.852;20.632;2022-11-09T00:12:46;30.40;29.00;18.60
21358;PMS7003;13506;50.852;20.632;2022-11-09T00:15:14;34.80;30.80;17.80
21358;PMS7003;13506;50.852;20.632;2022-11-09T00:17:42;35.20;31.00;19.00
21358;PMS7003;13506;50.852;20.632;2022-11-09T00:20:10;40.80;33.40;19.00
21358;PMS7003;13506;50.852;20.632;2022-11-09T00:22:38;37.20;29.40;18.60
21358;PMS7003;13506;50.852;20.632;2022-11-09T00:25:06;33.40;30.80;17.40
21358;PMS7003;13506;50.852;20.632;2022-11-09T00:27:34;25.20;19.00;13.60
21358;PMS7003;13506;50.852;20.632;2022-11-09T00:30:04;28.60;24.00;14.60
21358;PMS7003;13506;50.852;20.632;2022-11-09T00:32:32;26.00;24.60;15.80
21358;PMS7003;13506;50.852;20.632;2022-11-09T00:35:00;26.20;23.00;12.80
21358;PMS7003;13506;50.852;20.632;2022-11-09T00:37:28;27.00;22.80;13.80
21358;PMS7003;13506;50.852;20.632;2022-11-09T00:39:55;28.80;23.80;14.20
21358;PMS7003;13506;50.852;20.632;2022-11-09T00:42:27;27.20;24.60;13.80
21358;PMS7003;13506;50.852;20.632;2022-11-09T00:44:55;31.60;24.80;14.20
21358;PMS7003;13506;50.852;20.632;2022-11-09T00:47:24;25.00;22.50;12.75
21358;PMS7003;13506;50.852;20.632;2022-11-09T00:49:52;22.40;20.20;13.60
21358;PMS7003;13506;50.852;20.632;2022-11-09T00:52:20;27.20;23.80;14.40
21358;PMS7003;13506;50.852;20.632;2022-11-09T00:54:48;27.40;21.40;11.80
21358;PMS7003;13506;50.852;20.632;2022-11-09T00:57:16;27.00;24.40;14.80
21358;PMS7003;13506;50.852;20.632;2022-11-09T00:59:44;25.80;25.00;14.40
21358;PMS7003;13506;50.852;20.632;2022-11-09T01:02:12;25.80;22.20;12.00
21358;PMS7003;13506;50.852;20.632;2022-11-09T01:04:41;26.20;24.00;14.00
21358;PMS7003;13506;50.852;20.632;2022-11-09T01:07:09;22.20;22.20;14.40
21358;PMS7003;13506;50.852;20.632;2022-11-09T01:09:37;30.20;27.80;16.60
21358;PMS7003;13506;50.852;20.632;2022-11-09T01:12:05;28.80;24.40;13.40
21358;PMS7003;13506;50.852;20.632;2022-11-09T01:14:33;28.20;25.20;14.80
21358;PMS7003;13506;50.852;20.632;2022-11-09T01:17:02;29.40;23.60;12.20
21358;PMS7003;13506;50.852;20.632;2022-11-09T01:19:30;31.60;27.40;17.60
21358;PMS7003;13506;50.852;20.632;2022-11-09T01:21:58;27.40;23.20;14.40
21358;PMS7003;13506;50.852;20.632;2022-11-09T01:24:27;27.60;27.00;18.60
21358;PMS7003;13506;50.852;20.632;2022-11-09T01:26:55;34.40;27.60;14.20
21358;PMS7003;13506;50.852;20.632;2022-11-09T01:29:22;28.20;25.80;15.00
21358;PMS7003;13506;50.852;20.632;2022-11-09T01:31:50;32.60;26.40;15.00
21358;PMS7003;13506;50.852;20.632;2022-11-09T01:34:20;34.60;29.00;16.60
21358;PMS7003;13506;50.852;20.632;2022-11-09T01:36:48;28.80;26.00;15.60
21358;PMS7003;13506;50.852;20.632;2022-11-09T01:39:18;30.60;26.40;14.00
21358;PMS7003;13506;50.852;20.632;2022-11-09T01:41:46;35.20;30.20;18.40
21358;PMS7003;13506;50.852;20.632;2022-11-09T01:44:15;41.00;34.20;18.60
21358;PMS7003;13506;50.852;20.632;2022-11-09T01:46:46;39.40;34.00;20.80
21358;PMS7003;13506;50.852;20.632;2022-11-09T01:49:31;40.40;35.20;20.60
21358;PMS7003;13506;50.852;20.632;2022-11-09T01:52:08;41.20;34.20;21.40
21358;PMS7003;13506;50.852;20.632;2022-11-09T01:54:44;42.60;35.60;21.20
21358;PMS7003;13506;50.852;20.632;2022-11-09T01:57:17;44.00;36.80;22.40
21358;PMS7003;13506;50.852;20.632;2022-11-09T01:59:53;36.80;31.80;18.00
21358;PMS7003;13506;50.852;20.632;2022-11-09T02:02:27;38.80;35.80;22.60
21358;PMS7003;13506;50.852;20.632;2022-11-09T02:04:56;37.20;32.00;20.00
21358;PMS7003;13506;50.852;20.632;2022-11-09T02:07:28;55.00;42.00;26.75
21358;PMS7003;13506;50.852;20.632;2022-11-09T02:10:00;49.50;39.75;25.00
21358;PMS7003;13506;50.852;20.632;2022-11-09T02:12:34;72.25;56.75;36.25
21358;PMS7003;13506;50.852;20.632;2022-11-09T02:15:04;72.25;54.00;34.00
21358;PMS7003;13506;50.852;20.632;2022-11-09T02:17:34;73.00;56.50;36.00
21358;PMS7003;13506;50.852;20.632;2022-11-09T02:20:07;64.50;49.50;31.25
21358;PMS7003;13506;50.852;20.632;2022-11-09T02:22:38;59.75;46.00;29.75
21358;PMS7003;13506;50.852;20.632;2022-11-09T02:25:07;65.00;48.75;31.00
21358;PMS7003;13506;50.852;20.632;2022-11-09T02:27:38;55.00;45.50;26.25
21358;PMS7003;13506;50.852;20.632;2022-11-09T02:30:08;47.20;40.80;26.00
21358;PMS7003;13506;50.852;20.632;2022-11-09T02:32:38;45.60;38.20;24.00
21358;PMS7003;13506;50.852;20.632;2022-11-09T02:35:08;49.20;37.00;21.00
21358;PMS7003;13506;50.852;20.632;2022-11-09T02:37:37;52.00;44.00;27.50
21358;PMS7003;13506;50.852;20.632;2022-11-09T02:40:09;60.75;48.75;29.25
21358;PMS7003;13506;50.852;20.632;2022-11-09T02:42:43;63.25;50.25;31.25
21358;PMS7003;13506;50.852;20.632;2022-11-09T02:45:12;63.50;47.75;28.00
21358;PMS7003;13506;50.852;20.632;2022-11-09T02:47:41;62.25;47.75;30.50
21358;PMS7003;13506;50.852;20.632;2022-11-09T02:50:10;67.00;50.75;32.50
21358;PMS7003;13506;50.852;20.632;2022-11-09T02:52:37;71.00;54.00;34.00
21358;PMS7003;13506;50.852;20.632;2022-11-09T02:55:05;52.25;44.50;29.75
21358;PMS7003;13506;50.852;20.632;2022-11-09T02:57:34;59.75;47.25;30.25
21358;PMS7003;13506;50.852;20.632;2022-11-09T03:00:03;55.25;43.00;27.75
21358;PMS7003;13506;50.852;20.632;2022-11-09T03:02:34;49.00;42.40;26.60
21358;PMS7003;13506;50.852;20.632;2022-11-09T03:05:02;52.75;41.75;26.00
21358;PMS7003;13506;50.852;20.632;2022-11-09T03:07:31;43.00;38.00;24.50
21358;PMS7003;13506;50.852;20.632;2022-11-09T03:09:59;35.20;32.00;19.20
21358;PMS7003;13506;50.852;20.632;2022-11-09T03:12:28;36.00;27.60;16.20
21358;PMS7003;13506;50.852;20.632;2022-11-09T03:15:04;31.60;26.40;16.80
21358;PMS7003;13506;50.852;20.632;2022-11-09T03:17:37;29.60;25.20;17.00
21358;PMS7003;13506;50.852;20.632;2022-11-09T03:20:06;32.40;26.20;14.00
21358;PMS7003;13506;50.852;20.632;2022-11-09T03:22:37;27.00;22.40;11.00
21358;PMS7003;13506;50.852;20.632;2022-11-09T03:25:06;27.60;25.80;16.40
21358;PMS7003;13506;50.852;20.632;2022-11-09T03:27:34;23.60;20.80;13.00
21358;PMS7003;13506;50.852;20.632;2022-11-09T03:30:03;25.80;22.60;14.00
21358;PMS7003;13506;50.852;20.632;2022-11-09T03:32:32;33.20;26.00;14.20
21358;PMS7003;13506;50.852;20.632;2022-11-09T03:35:00;34.40;29.60;17.60
21358;PMS7003;13506;50.852;20.632;2022-11-09T03:37:28;40.00;33.80;19.60
21358;PMS7003;13506;50.852;20.632;2022-11-09T03:39:57;38.40;30.20;16.80
21358;PMS7003;13506;50.852;20.632;2022-11-09T03:42:25;33.40;29.80;16.40
21358;PMS7003;13506;50.852;20.632;2022-11-09T03:44:53;35.60;35.00;20.80
21358;PMS7003;13506;50.852;20.632;2022-11-09T03:47:20;36.20;28.80;18.60
21358;PMS7003;13506;50.852;20.632;2022-11-09T03:49:48;35.60;32.20;17.80
21358;PMS7003;13506;50.852;20.632;2022-11-09T03:52:15;34.60;31.40;18.60
21358;PMS7003;13506;50.852;20.632;2022-11-09T03:54:43;35.00;32.60;21.40
21358;PMS7003;13506;50.852;20.632;2022-11-09T03:57:12;52.60;43.20;25.00
21358;PMS7003;13506;50.852;20.632;2022-11-09T03:59:40;43.20;39.80;25.80
21358;PMS7003;13506;50.852;20.632;2022-11-09T04:02:07;44.75;38.75;23.50
21358;PMS7003;13506;50.852;20.632;2022-11-09T04:04:35;39.20;31.00;19.60
21358;PMS7003;13506;50.852;20.632;2022-11-09T04:07:03;37.20;30.00;17.60
21358;PMS7003;13506;50.852;20.632;2022-11-09T04:09:31;33.60;30.20;17.20
21358;PMS7003;13506;50.852;20.632;2022-11-09T04:11:59;30.80;27.60;16.20
21358;PMS7003;13506;50.852;20.632;2022-11-09T04:14:29;26.80;26.60;16.40
21358;PMS7003;13506;50.852;20.632;2022-11-09T04:16:56;26.20;26.20;14.40
21358;PMS7003;13506;50.852;20.632;2022-11-09T04:19:24;25.60;24.20;12.60
21358;PMS7003;13506;50.852;20.632;2022-11-09T04:21:51;30.00;28.20;17.40
21358;PMS7003;13506;50.852;20.632;2022-11-09T04:24:19;31.80;27.00;16.40
21358;PMS7003;13506;50.852;20.632;2022-11-09T04:26:47;24.80;23.60;15.00
21358;PMS7003;13506;50.852;20.632;2022-11-09T04:29:15;28.40;26.60;15.40
21358;PMS7003;13506;50.852;20.632;2022-11-09T04:31:44;28.80;26.80;16.00
21358;PMS7003;13506;50.852;20.632;2022-11-09T04:34:14;33.20;27.40;16.00
21358;PMS7003;13506;50.852;20.632;2022-11-09T04:36:42;25.80;22.80;14.00
21358;PMS7003;13506;50.852;20.632;2022-11-09T04:39:10;27.80;25.60;15.60
21358;PMS7003;13506;50.852;20.632;2022-11-09T04:41:38;32.80;28.40;16.20
21358;PMS7003;13506;50.852;20.632;2022-11-09T04:44:07;29.20;23.20;14.00
21358;PMS7003;13506;50.852;20.632;2022-11-09T04:46:35;31.40;28.40;16.60
21358;PMS7003;13506;50.852;20.632;2022-11-09T04:49:04;29.40;26.20;14.00
21358;PMS7003;13506;50.852;20.632;2022-11-09T04:51:31;36.80;30.80;15.80
21358;PMS7003;13506;50.852;20.632;2022-11-09T04:53:59;28.40;25.40;15.60
21358;PMS7003;13506;50.852;20.632;2022-11-09T04:56:26;26.40;22.80;14.80
21358;PMS7003;13506;50.852;20.632;2022-11-09T04:58:54;31.00;27.20;17.40
21358;PMS7003;13506;50.852;20.632;2022-11-09T05:01:21;30.00;24.60;14.00
21358;PMS7003;13506;50.852;20.632;2022-11-09T05:03:49;33.20;29.20;18.20
21358;PMS7003;13506;50.852;20.632;2022-11-09T05:06:18;36.00;28.40;16.00
21358;PMS7003;13506;50.852;20.632;2022-11-09T05:08:58;29.40;23.60;12.80
21358;PMS7003;13506;50.852;20.632;2022-11-09T05:11:27;26.20;24.20;13.20
21358;PMS7003;13506;50.852;20.632;2022-11-09T05:13:56;31.20;26.20;13.80
21358;PMS7003;13506;50.852;20.632;2022-11-09T05:16:24;25.60;20.60;11.80
21358;PMS7003;13506;50.852;20.632;2022-11-09T05:18:53;23.80;20.60;12.80
21358;PMS7003;13506;50.852;20.632;2022-11-09T05:21:22;18.80;16.00;8.40
21358;PMS7003;13506;50.852;20.632;2022-11-09T05:23:51;26.00;19.80;12.60
21358;PMS7003;13506;50.852;20.632;2022-11-09T05:26:25;22.40;18.40;9.80
21358;PMS7003;13506;50.852;20.632;2022-11-09T05:28:54;22.40;17.60;9.40
21358;PMS7003;13506;50.852;20.632;2022-11-09T05:31:23;20.60;18.80;10.20
21358;PMS7003;13506;50.852;20.632;2022-11-09T05:33:52;21.80;17.80;10.80
21358;PMS7003;13506;50.852;20.632;2022-11-09T05:36:20;22.00;18.80;10.60
21358;PMS7003;13506;50.852;20.632;2022-11-09T05:38:51;19.80;17.40;9.80
21358;PMS7003;13506;50.852;20.632;2022-11-09T05:41:18;20.20;18.60;13.00
21358;PMS7003;13506;50.852;20.632;2022-11-09T05:43:46;19.40;17.00;10.00
21358;PMS7003;13506;50.852;20.632;2022-11-09T05:46:14;21.40;18.60;10.20
21358;PMS7003;13506;50.852;20.632;2022-11-09T05:48:43;20.20;16.00;8.80
21358;PMS7003;13506;50.852;20.632;2022-11-09T05:51:12;18.40;16.00;8.80
21358;PMS7003;13506;50.852;20.632;2022-11-09T05:53:42;16.60;15.20;9.00
21358;PMS7003;13506;50.852;20.632;2022-11-09T05:56:10;22.40;19.20;9.60
21358;PMS7003;13506;50.852;20.632;2022-11-09T05:58:40;20.80;18.00;10.00
21358;PMS7003;13506;50.852;20.632;2022-11-09T06:01:08;24.40;19.40;10.80
21358;PMS7003;13506;50.852;20.632;2022-11-09T06:03:38;20.40;17.80;11.00
21358;PMS7003;13506;50.852;20.632;2022-11-09T06:06:08;18.80;18.00;9.60
21358;PMS7003;13506;50.852;20.632;2022-11-09T06:08:39;23.40;17.20;10.60
21358;PMS7003;13506;50.852;20.632;2022-11-09T06:11:09;20.40;17.20;9.20
21358;PMS7003;13506;50.852;20.632;2022-11-09T06:13:38;19.00;19.00;10.00
21358;PMS7003;13506;50.852;20.632;2022-11-09T06:16:07;21.00;18.80;10.40
21358;PMS7003;13506;50.852;20.632;2022-11-09T06:18:36;17.20;15.20;9.00
21358;PMS7003;13506;50.852;20.632;2022-11-09T06:21:04;22.00;19.40;11.40
21358;PMS7003;13506;50.852;20.632;2022-11-09T06:23:32;16.20;15.40;9.40
21358;PMS7003;13506;50.852;20.632;2022-11-09T06:26:02;16.00;16.00;8.40
21358;PMS7003;13506;50.852;20.632;2022-11-09T06:28:32;15.80;14.60;8.80
21358;PMS7003;13506;50.852;20.632;2022-11-09T06:31:00;15.40;12.40;8.00
21358;PMS7003;13506;50.852;20.632;2022-11-09T06:33:31;20.20;19.00;9.00
21358;PMS7003;13506;50.852;20.632;2022-11-09T06:36:00;16.20;14.80;7.20
21358;PMS7003;13506;50.852;20.632;2022-11-09T06:38:29;17.60;14.60;7.80
21358;PMS7003;13506;50.852;20.632;2022-11-09T06:40:57;15.80;14.00;7.80
21358;PMS7003;13506;50.852;20.632;2022-11-09T06:43:27;17.40;14.80;8.80
21358;PMS7003;13506;50.852;20.632;2022-11-09T06:45:55;15.20;14.60;7.40
21358;PMS7003;13506;50.852;20.632;2022-11-09T06:48:22;19.20;16.40;6.20
21358;PMS7003;13506;50.852;20.632;2022-11-09T06:50:50;20.00;15.00;9.40
21358;PMS7003;13506;50.852;20.632;2022-11-09T06:53:18;17.40;17.00;8.40
21358;PMS7003;13506;50.852;20.632;2022-11-09T06:55:46;16.20;16.20;8.80
21358;PMS7003;13506;50.852;20.632;2022-11-09T06:58:14;11.60;11.60;6.00
21358;PMS7003;13506;50.852;20.632;2022-11-09T07:00:43;17.80;15.40;7.40
21358;PMS7003;13506;50.852;20.632;2022-11-09T07:03:12;18.00;16.00;8.00
21358;PMS7003;13506;50.852;20.632;2022-11-09T07:05:40;16.80;15.60;7.40
21358;PMS7003;13506;50.852;20.632;2022-11-09T07:08:09;15.20;11.80;7.20
21358;PMS7003;13506;50.852;20.632;2022-11-09T07:10:37;15.20;13.20;8.00
21358;PMS7003;13506;50.852;20.632;2022-11-09T07:13:05;16.40;13.00;7.60
21358;PMS7003;13506;50.852;20.632;2022-11-09T07:15:34;19.80;13.20;8.00
21358;PMS7003;13506;50.852;20.632;2022-11-09T07:18:05;15.80;12.80;7.00
21358;PMS7003;13506;50.852;20.632;2022-11-09T07:20:36;18.60;14.00;8.60
21358;PMS7003;13506;50.852;20.632;2022-11-09T07:23:04;14.40;12.40;7.60
21358;PMS7003;13506;50.852;20.632;2022-11-09T07:25:32;18.00;15.80;8.00
21358;PMS7003;13506;50.852;20.632;2022-11-09T07:28:03;13.80;13.80;7.80
21358;PMS7003;13506;50.852;20.632;2022-11-09T07:30:33;16.00;12.80;6.60
21358;PMS7003;13506;50.852;20.632;2022-11-09T07:33:02;21.00;18.00;9.00
21358;PMS7003;13506;50.852;20.632;2022-11-09T07:35:37;15.20;15.20;9.40
21358;PMS7003;13506;50.852;20.632;2022-11-09T07:38:04;16.40;15.80;9.40
21358;PMS7003;13506;50.852;20.632;2022-11-09T07:40:32;17.00;12.40;8.00
21358;PMS7003;13506;50.852;20.632;2022-11-09T07:43:02;15.80;15.00;8.00
21358;PMS7003;13506;50.852;20.632;2022-11-09T07:45:32;19.00;15.40;8.60
21358;PMS7003;13506;50.852;20.632;2022-11-09T07:48:02;19.20;16.40;9.80
21358;PMS7003;13506;50.852;20.632;2022-11-09T07:50:34;22.00;16.60;9.00
21358;PMS7003;13506;50.852;20.632;2022-11-09T07:53:03;20.80;16.20;8.80
21358;PMS7003;13506;50.852;20.632;2022-11-09T07:55:32;16.80;14.60;7.20
21358;PMS7003;13506;50.852;20.632;2022-11-09T07:58:01;16.40;15.00;8.60
21358;PMS7003;13506;50.852;20.632;2022-11-09T08:00:31;18.20;15.80;8.60
21358;PMS7003;13506;50.852;20.632;2022-11-09T08:03:01;18.60;16.60;8.20
21358;PMS7003;13506;50.852;20.632;2022-11-09T08:05:31;18.40;16.00;9.60
21358;PMS7003;13506;50.852;20.632;2022-11-09T08:07:59;14.60;13.20;6.80
21358;PMS7003;13506;50.852;20.632;2022-11-09T08:10:29;22.60;17.60;10.40
21358;PMS7003;13506;50.852;20.632;2022-11-09T08:12:59;19.40;15.80;8.00
21358;PMS7003;13506;50.852;20.632;2022-11-09T08:15:29;19.00;14.00;8.80
21358;PMS7003;13506;50.852;20.632;2022-11-09T08:17:57;20.20;14.20;8.00
21358;PMS7003;13506;50.852;20.632;2022-11-09T08:20:26;17.40;15.60;10.00
21358;PMS7003;13506;50.852;20.632;2022-11-09T08:22:55;18.00;15.40;10.00
21358;PMS7003;13506;50.852;20.632;2022-11-09T08:25:23;18.40;15.40;10.00
21358;PMS7003;13506;50.852;20.632;2022-11-09T08:27:51;22.00;15.60;8.80
21358;PMS7003;13506;50.852;20.632;2022-11-09T08:30:21;20.80;18.20;10.00
21358;PMS7003;13506;50.852;20.632;2022-11-09T08:32:50;18.20;17.00;10.20
21358;PMS7003;13506;50.852;20.632;2022-11-09T08:35:18;19.20;17.80;9.60
21358;PMS7003;13506;50.852;20.632;2022-11-09T08:37:50;16.40;15.00;9.20
21358;PMS7003;13506;50.852;20.632;2022-11-09T08:40:21;18.60;17.40;10.00
21358;PMS7003;13506;50.852;20.632;2022-11-09T08:42:51;16.75;15.00;8.50
21358;PMS7003;13506;50.852;20.632;2022-11-09T08:45:19;20.80;18.20;11.00
21358;PMS7003;13506;50.852;20.632;2022-11-09T08:47:47;19.80;18.00;11.00
21358;PMS7003;13506;50.852;20.632;2022-11-09T08:50:15;20.20;15.20;10.00
21358;PMS7003;13506;50.852;20.632;2022-11-09T08:52:43;16.40;14.80;9.20
21358;PMS7003;13506;50.852;20.632;2022-11-09T08:55:10;22.40;16.40;9.60
21358;PMS7003;13506;50.852;20.632;2022-11-09T08:57:40;14.60;13.80;8.00
21358;PMS7003;13506;50.852;20.632;2022-11-09T09:00:07;21.00;15.60;9.40
21358;PMS7003;13506;50.852;20.632;2022-11-09T09:02:36;17.00;14.20;8.80
21358;PMS7003;13506;50.852;20.632;2022-11-09T09:05:04;15.80;14.20;9.00
21358;PMS7003;13506;50.852;20.632;2022-11-09T09:07:32;19.20;16.40;9.00
21358;PMS7003;13506;50.852;20.632;2022-11-09T09:10:00;18.80;17.20;10.60
21358;PMS7003;13506;50.852;20.632;2022-11-09T09:12:29;23.60;17.60;10.60
21358;PMS7003;13506;50.852;20.632;2022-11-09T09:14:58;15.80;15.40;9.20
21358;PMS7003;13506;50.852;20.632;2022-11-09T09:17:26;18.20;16.60;8.80
21358;PMS7003;13506;50.852;20.632;2022-11-09T09:19:54;17.80;16.20;9.00
21358;PMS7003;13506;50.852;20.632;2022-11-09T09:22:22;20.60;18.00;11.00
21358;PMS7003;13506;50.852;20.632;2022-11-09T09:24:50;19.60;17.40;9.00
21358;PMS7003;13506;50.852;20.632;2022-11-09T09:27:18;19.80;18.00;10.00
21358;PMS7003;13506;50.852;20.632;2022-11-09T09:29:45;19.00;17.40;9.40
21358;PMS7003;13506;50.852;20.632;2022-11-09T09:32:15;21.80;16.00;8.80
21358;PMS7003;13506;50.852;20.632;2022-11-09T09:34:42;18.20;15.20;9.00
21358;PMS7003;13506;50.852;20.632;2022-11-09T09:37:10;18.40;15.20;10.20
21358;PMS7003;13506;50.852;20.632;2022-11-09T09:39:38;15.40;14.00;7.20
21358;PMS7003;13506;50.852;20.632;2022-11-09T09:42:06;20.20;19.40;9.80
21358;PMS7003;13506;50.852;20.632;2022-11-09T09:44:42;18.60;13.80;9.00
21358;PMS7003;13506;50.852;20.632;2022-11-09T09:47:22;17.20;14.00;8.80
21358;PMS7003;13506;50.852;20.632;2022-11-09T09:50:00;16.80;15.20;9.60
21358;PMS7003;13506;50.852;20.632;2022-11-09T09:52:37;22.80;18.00;10.20
21358;PMS7003;13506;50.852;20.632;2022-11-09T09:55:13;14.60;14.40;8.60
21358;PMS7003;13506;50.852;20.632;2022-11-09T09:57:52;15.20;14.20;8.40
21358;PMS7003;13506;50.852;20.632;2022-11-09T10:00:22;20.40;16.40;9.80
21358;PMS7003;13506;50.852;20.632;2022-11-09T10:02:54;18.00;15.00;9.00
21358;PMS7003;13506;50.852;20.632;2022-11-09T10:05:24;17.80;16.00;10.00
21358;PMS7003;13506;50.852;20.632;2022-11-09T10:08:04;21.20;18.40;10.00
21358;PMS7003;13506;50.852;20.632;2022-11-09T10:10:40;21.00;17.60;9.20
21358;PMS7003;13506;50.852;20.632;2022-11-09T10:13:17;17.00;12.80;7.20
21358;PMS7003;13506;50.852;20.632;2022-11-09T10:16:09;24.00;17.20;9.00
21358;PMS7003;13506;50.852;20.632;2022-11-09T10:18:53;17.50;16.75;9.00
21358;PMS7003;13506;50.852;20.632;2022-11-09T10:21:53;15.40;15.00;7.80
21358;PMS7003;13506;50.852;20.632;2022-11-09T10:24:34;17.80;15.40;8.80
21358;PMS7003;13506;50.852;20.632;2022-11-09T10:27:20;15.60;15.00;7.40
21358;PMS7003;13506;50.852;20.632;2022-11-09T10:29:53;19.00;17.00;9.20
21358;PMS7003;13506;50.852;20.632;2022-11-09T10:32:22;19.00;14.40;7.60
21358;PMS7003;13506;50.852;20.632;2022-11-09T10:34:55;15.40;14.80;8.20
21358;PMS7003;13506;50.852;20.632;2022-11-09T10:37:31;15.00;13.20;7.00
21358;PMS7003;13506;50.852;20.632;2022-11-09T10:40:10;16.00;14.40;7.80
21358;PMS7003;13506;50.852;20.632;2022-11-09T10:43:05;17.40;13.60;6.60
21358;PMS7003;13506;50.852;20.632;2022-11-09T10:45:59;18.40;14.20;7.80
21358;PMS7003;13506;50.852;20.632;2022-11-09T10:48:49;15.40;13.80;8.80
21358;PMS7003;13506;50.852;20.632;2022-11-09T10:51:39;15.20;13.80;8.40
21358;PMS7003;13506;50.852;20.632;2022-11-09T10:54:29;16.00;15.40;9.00
21358;PMS7003;13506;50.852;20.632;2022-11-09T10:57:19;14.60;13.40;6.80
21358;PMS7003;13506;50.852;20.632;2022-11-09T11:00:12;16.00;14.20;9.00
21358;PMS7003;13506;50.852;20.632;2022-11-09T11:03:08;19.20;15.60;9.80
21358;PMS7003;13506;50.852;20.632;2022-11-09T11:06:00;19.80;16.60;9.60
21358;PMS7003;13506;50.852;20.632;2022-11-09T11:08:50;19.20;16.80;9.00
21358;PMS7003;13506;50.852;20.632;2022-11-09T11:12:05;22.80;19.60;10.00
21358;PMS7003;13506;50.852;20.632;2022-11-09T11:14:58;16.80;14.40;7.80
21358;PMS7003;13506;50.852;20.632;2022-11-09T11:17:45;17.20;16.00;7.20
21358;PMS7003;13506;50.852;20.632;2022-11-09T11:20:32;15.40;12.60;8.00
21358;PMS7003;13506;50.852;20.632;2022-11-09T11:23:21;14.80;13.00;7.60
21358;PMS7003;13506;50.852;20.632;2022-11-09T11:26:16;20.20;14.00;7.20
21358;PMS7003;13506;50.852;20.632;2022-11-09T11:29:16;15.60;15.40;9.80
21358;PMS7003;13506;50.852;20.632;2022-11-09T11:32:25;17.00;15.25;8.75
21358;PMS7003;13506;50.852;20.632;2022-11-09T11:35:12;17.60;14.00;8.00
21358;PMS7003;13506;50.852;20.632;2022-11-09T11:38:15;16.80;15.80;8.20
21358;PMS7003;13506;50.852;20.632;2022-11-09T11:41:18;15.60;13.20;7.00
21358;PMS7003;13506;50.852;20.632;2022-11-09T11:44:36;15.40;12.80;7.00
21358;PMS7003;13506;50.852;20.632;2022-11-09T11:47:43;15.80;14.60;6.20
21358;PMS7003;13506;50.852;20.632;2022-11-09T11:50:38;16.40;11.00;7.00
21358;PMS7003;13506;50.852;20.632;2022-11-09T11:53:34;18.00;14.00;8.40
21358;PMS7003;13506;50.852;20.632;2022-11-09T11:56:41;13.80;12.40;6.40
21358;PMS7003;13506;50.852;20.632;2022-11-09T12:02:53;20.00;13.80;6.80
21358;PMS7003;13506;50.852;20.632;2022-11-09T12:06:25;45.00;36.60;23.20
21358;PMS7003;13506;50.852;20.632;2022-11-09T12:09:33;14.20;12.00;7.40
21358;PMS7003;13506;50.852;20.632;2022-11-09T12:12:41;16.20;11.60;7.40
21358;PMS7003;13506;50.852;20.632;2022-11-09T12:15:46;15.80;12.80;6.00
21358;PMS7003;13506;50.852;20.632;2022-11-09T12:18:44;12.80;11.60;6.00
21358;PMS7003;13506;50.852;20.632;2022-11-09T12:21:43;11.20;10.80;5.20
21358;PMS7003;13506;50.852;20.632;2022-11-09T12:24:38;16.20;14.20;7.80
21358;PMS7003;13506;50.852;20.632;2022-11-09T12:27:38;13.60;12.20;6.80
21358;PMS7003;13506;50.852;20.632;2022-11-09T12:30:41;12.20;10.20;5.00
21358;PMS7003;13506;50.852;20.632;2022-11-09T12:33:39;19.00;15.40;9.40
21358;PMS7003;13506;50.852;20.632;2022-11-09T12:36:32;16.00;14.80;8.00
21358;PMS7003;13506;50.852;20.632;2022-11-09T12:39:27;13.00;12.60;9.00
21358;PMS7003;13506;50.852;20.632;2022-11-09T12:42:19;14.20;12.20;6.80
21358;PMS7003;13506;50.852;20.632;2022-11-09T12:45:20;13.40;12.00;5.80
21358;PMS7003;13506;50.852;20.632;2022-11-09T12:48:14;14.60;11.00;5.00
21358;PMS7003;13506;50.852;20.632;2022-11-09T12:51:06;18.20;12.80;6.60
21358;PMS7003;13506;50.852;20.632;2022-11-09T12:53:52;16.20;15.20;8.60
21358;PMS7003;13506;50.852;20.632;2022-11-09T12:56:44;15.80;12.60;6.60
21358;PMS7003;13506;50.852;20.632;2022-11-09T12:59:43;15.00;13.80;7.40
21358;PMS7003;13506;50.852;20.632;2022-11-09T13:02:36;19.20;16.00;9.20
21358;PMS7003;13506;50.852;20.632;2022-11-09T13:05:28;16.20;14.40;8.00
21358;PMS7003;13506;50.852;20.632;2022-11-09T13:08:18;16.00;14.40;7.60
21358;PMS7003;13506;50.852;20.632;2022-11-09T13:11:15;17.60;16.40;10.00
21358;PMS7003;13506;50.852;20.632;2022-11-09T13:20:42;11.60;11.00;7.60
21358;PMS7003;13506;50.852;20.632;2022-11-09T13:23:33;17.80;15.00;8.40
21358;PMS7003;13506;50.852;20.632;2022-11-09T13:26:23;16.20;14.00;7.00
21358;PMS7003;13506;50.852;20.632;2022-11-09T13:29:47;14.60;13.80;8.00
21358;PMS7003;13506;50.852;20.632;2022-11-09T13:32:34;13.20;10.80;5.40
21358;PMS7003;13506;50.852;20.632;2022-11-09T13:42:25;17.40;13.20;7.00
21358;PMS7003;13506;50.852;20.632;2022-11-09T13:45:16;26.60;20.80;11.00
21358;PMS7003;13506;50.852;20.632;2022-11-09T13:51:40;14.40;12.80;6.40
21358;PMS7003;13506;50.852;20.632;2022-11-09T13:54:30;13.60;13.00;6.40
21358;PMS7003;13506;50.852;20.632;2022-11-09T13:57:18;15.20;11.60;6.20
21358;PMS7003;13506;50.852;20.632;2022-11-09T14:00:09;19.00;15.00;8.80
21358;PMS7003;13506;50.852;20.632;2022-11-09T14:03:15;19.40;17.40;8.00
21358;PMS7003;13506;50.852;20.632;2022-11-09T14:06:04;16.40;15.40;10.00
21358;PMS7003;13506;50.852;20.632;2022-11-09T14:08:52;14.80;13.20;7.00
21358;PMS7003;13506;50.852;20.632;2022-11-09T14:11:46;16.00;14.00;7.40
21358;PMS7003;13506;50.852;20.632;2022-11-09T14:18:11;17.00;13.40;7.00
21358;PMS7003;13506;50.852;20.632;2022-11-09T14:21:16;16.60;14.20;7.40
21358;PMS7003;13506;50.852;20.632;2022-11-09T14:24:17;20.60;17.20;11.00
21358;PMS7003;13506;50.852;20.632;2022-11-09T14:27:12;19.75;15.00;8.25
21358;PMS7003;13506;50.852;20.632;2022-11-09T14:30:12;23.80;19.40;11.20
21358;PMS7003;13506;50.852;20.632;2022-11-09T14:33:14;19.00;17.40;9.00
21358;PMS7003;13506;50.852;20.632;2022-11-09T14:36:09;19.00;17.60;10.40
21358;PMS7003;13506;50.852;20.632;2022-11-09T14:38:58;18.60;16.80;9.20
21358;PMS7003;13506;50.852;20.632;2022-11-09T14:41:48;29.00;21.20;13.20
21358;PMS7003;13506;50.852;20.632;2022-11-09T14:44:36;22.80;18.60;11.40
21358;PMS7003;13506;50.852;20.632;2022-11-09T14:47:28;24.60;18.20;11.40
21358;PMS7003;13506;50.852;20.632;2022-11-09T14:50:20;15.60;13.60;7.80